sensor_id;sensor_type;location;lat;lon;timestamp;P1;durP1;ratioP1;P2;durP2;ratioP2
74196;SDS011;62555;52.678;4.900;2022-12-29T00:02:03;90.50;;;42.72;;
74196;SDS011;62555;52.678;4.900;2022-12-29T00:04:28;42.70;;;20.85;;
74196;SDS011;62555;52.678;4.900;2022-12-29T00:06:54;14.90;;;7.85;;
74196;SDS011;62555;52.678;4.900;2022-12-29T00:09:19;10.32;;;5.07;;
74196;SDS011;62555;52.678;4.900;2022-12-29T00:11:44;7.97;;;3.85;;
74196;SDS011;62555;52.678;4.900;2022-12-29T00:14:10;6.88;;;3.63;;
74196;SDS011;62555;52.678;4.900;2022-12-29T00:16:55;5.53;;;3.08;;
74196;SDS011;62555;52.678;4.900;2022-12-29T00:19:20;4.72;;;2.90;;
74196;SDS011;62555;52.678;4.900;2022-12-29T00:22:05;5.38;;;3.20;;
74196;SDS011;62555;52.678;4.900;2022-12-29T00:24:49;4.72;;;3.00;;
74196;SDS011;62555;52.678;4.900;2022-12-29T00:27:33;6.60;;;2.70;;
74196;SDS011;62555;52.678;4.900;2022-12-29T00:30:19;4.53;;;2.85;;
74196;SDS011;62555;52.678;4.900;2022-12-29T00:33:11;3.20;;;2.65;;
74196;SDS011;62555;52.678;4.900;2022-12-29T00:35:58;4.18;;;2.90;;
74196;SDS011;62555;52.678;4.900;2022-12-29T00:38:26;3.22;;;2.50;;
74196;SDS011;62555;52.678;4.900;2022-12-29T00:41:10;4.68;;;3.10;;
74196;SDS011;62555;52.678;4.900;2022-12-29T00:43:54;4.15;;;2.67;;
74196;SDS011;62555;52.678;4.900;2022-12-29T00:46:34;3.58;;;2.70;;
74196;SDS011;62555;52.678;4.900;2022-12-29T00:49:04;3.30;;;3.00;;
74196;SDS011;62555;52.678;4.900;2022-12-29T00:51:48;3.55;;;2.90;;
74196;SDS011;62555;52.678;4.900;2022-12-29T00:54:14;3.15;;;2.72;;
74196;SDS011;62555;52.678;4.900;2022-12-29T00:56:41;3.35;;;3.05;;
74196;SDS011;62555;52.678;4.900;2022-12-29T00:59:07;4.30;;;2.88;;
74196;SDS011;62555;52.678;4.900;2022-12-29T01:01:34;3.50;;;2.53;;
74196;SDS011;62555;52.678;4.900;2022-12-29T01:03:59;2.88;;;2.33;;
74196;SDS011;62555;52.678;4.900;2022-12-29T01:06:25;3.47;;;3.05;;
74196;SDS011;62555;52.678;4.900;2022-12-29T01:08:50;3.30;;;2.97;;
74196;SDS011;62555;52.678;4.900;2022-12-29T01:11:36;4.35;;;3.20;;
74196;SDS011;62555;52.678;4.900;2022-12-29T01:14:01;3.60;;;2.90;;
74196;SDS011;62555;52.678;4.900;2022-12-29T01:16:26;2.95;;;2.53;;
74196;SDS011;62555;52.678;4.900;2022-12-29T01:18:52;3.60;;;3.03;;
74196;SDS011;62555;52.678;4.900;2022-12-29T01:21:17;2.40;;;2.25;;
74196;SDS011;62555;52.678;4.900;2022-12-29T01:23:42;3.53;;;2.92;;
74196;SDS011;62555;52.678;4.900;2022-12-29T01:26:11;3.15;;;2.83;;
74196;SDS011;62555;52.678;4.900;2022-12-29T01:28:37;2.67;;;2.47;;
74196;SDS011;62555;52.678;4.900;2022-12-29T01:31:05;3.20;;;2.90;;
74196;SDS011;62555;52.678;4.900;2022-12-29T01:33:30;2.78;;;2.50;;
74196;SDS011;62555;52.678;4.900;2022-12-29T01:35:59;2.70;;;2.50;;
74196;SDS011;62555;52.678;4.900;2022-12-29T01:38:25;3.75;;;2.80;;
74196;SDS011;62555;52.678;4.900;2022-12-29T01:40:51;3.35;;;2.40;;
74196;SDS011;62555;52.678;4.900;2022-12-29T01:43:16;3.10;;;2.83;;
74196;SDS011;62555;52.678;4.900;2022-12-29T01:45:46;4.43;;;2.58;;
74196;SDS011;62555;52.678;4.900;2022-12-29T01:48:14;3.55;;;2.58;;
74196;SDS011;62555;52.678;4.900;2022-12-29T01:50:41;2.72;;;2.30;;
74196;SDS011;62555;52.678;4.900;2022-12-29T01:53:14;2.55;;;2.35;;
74196;SDS011;62555;52.678;4.900;2022-12-29T01:55:43;2.42;;;2.22;;
74196;SDS011;62555;52.678;4.900;2022-12-29T01:58:10;2.40;;;2.20;;
74196;SDS011;62555;52.678;4.900;2022-12-29T02:00:38;2.72;;;1.65;;
74196;SDS011;62555;52.678;4.900;2022-12-29T02:03:04;2.38;;;2.13;;
74196;SDS011;62555;52.678;4.900;2022-12-29T02:08:04;2.00;;;1.90;;
74196;SDS011;62555;52.678;4.900;2022-12-29T02:10:30;4.03;;;2.33;;
74196;SDS011;62555;52.678;4.900;2022-12-29T02:12:57;2.00;;;1.70;;
74196;SDS011;62555;52.678;4.900;2022-12-29T02:15:26;2.17;;;1.85;;
74196;SDS011;62555;52.678;4.900;2022-12-29T02:18:09;1.90;;;1.50;;
74196;SDS011;62555;52.678;4.900;2022-12-29T02:20:41;2.53;;;1.90;;
74196;SDS011;62555;52.678;4.900;2022-12-29T02:34:58;4.72;;;1.83;;
74196;SDS011;62555;52.678;4.900;2022-12-29T02:37:31;4.07;;;1.90;;
74196;SDS011;62555;52.678;4.900;2022-12-29T02:40:15;3.50;;;1.30;;
74196;SDS011;62555;52.678;4.900;2022-12-29T02:45:55;5.80;;;2.33;;
74196;SDS011;62555;52.678;4.900;2022-12-29T02:48:25;4.45;;;2.40;;
74196;SDS011;62555;52.678;4.900;2022-12-29T02:51:04;4.38;;;1.55;;
74196;SDS011;62555;52.678;4.900;2022-12-29T02:53:43;4.80;;;1.40;;
74196;SDS011;62555;52.678;4.900;2022-12-29T02:56:27;4.05;;;1.45;;
74196;SDS011;62555;52.678;4.900;2022-12-29T02:58:53;5.90;;;1.85;;
74196;SDS011;62555;52.678;4.900;2022-12-29T03:11:27;5.20;;;1.98;;
74196;SDS011;62555;52.678;4.900;2022-12-29T03:20:10;7.30;;;1.80;;
74196;SDS011;62555;52.678;4.900;2022-12-29T03:22:41;8.02;;;2.15;;
74196;SDS011;62555;52.678;4.900;2022-12-29T03:25:13;7.00;;;2.33;;
74196;SDS011;62555;52.678;4.900;2022-12-29T03:27:47;6.50;;;2.20;;
74196;SDS011;62555;52.678;4.900;2022-12-29T03:30:14;8.25;;;1.92;;
74196;SDS011;62555;52.678;4.900;2022-12-29T03:32:47;6.97;;;1.85;;
74196;SDS011;62555;52.678;4.900;2022-12-29T03:35:15;6.72;;;1.80;;
74196;SDS011;62555;52.678;4.900;2022-12-29T03:38:29;6.35;;;2.10;;
74196;SDS011;62555;52.678;4.900;2022-12-29T03:40:33;5.82;;;1.75;;
74196;SDS011;62555;52.678;4.900;2022-12-29T03:42:59;7.43;;;2.63;;
74196;SDS011;62555;52.678;4.900;2022-12-29T03:45:25;13.20;;;2.70;;
74196;SDS011;62555;52.678;4.900;2022-12-29T03:47:50;7.05;;;2.53;;
74196;SDS011;62555;52.678;4.900;2022-12-29T03:50:17;7.03;;;2.25;;
74196;SDS011;62555;52.678;4.900;2022-12-29T03:52:42;10.02;;;2.85;;
74196;SDS011;62555;52.678;4.900;2022-12-29T03:55:07;11.43;;;2.40;;
74196;SDS011;62555;52.678;4.900;2022-12-29T03:57:33;10.65;;;2.22;;
74196;SDS011;62555;52.678;4.900;2022-12-29T03:59:58;8.45;;;2.15;;
74196;SDS011;62555;52.678;4.900;2022-12-29T04:02:24;9.50;;;2.28;;
74196;SDS011;62555;52.678;4.900;2022-12-29T04:04:49;10.60;;;2.35;;
74196;SDS011;62555;52.678;4.900;2022-12-29T04:07:14;8.20;;;1.88;;
74196;SDS011;62555;52.678;4.900;2022-12-29T04:09:40;9.15;;;2.75;;
74196;SDS011;62555;52.678;4.900;2022-12-29T04:12:05;7.53;;;2.75;;
74196;SDS011;62555;52.678;4.900;2022-12-29T04:14:30;11.63;;;3.28;;
74196;SDS011;62555;52.678;4.900;2022-12-29T04:16:55;12.10;;;2.35;;
74196;SDS011;62555;52.678;4.900;2022-12-29T04:19:21;10.60;;;3.17;;
74196;SDS011;62555;52.678;4.900;2022-12-29T04:21:46;13.20;;;2.97;;
74196;SDS011;62555;52.678;4.900;2022-12-29T04:24:11;10.48;;;2.55;;
74196;SDS011;62555;52.678;4.900;2022-12-29T04:26:38;12.48;;;2.80;;
74196;SDS011;62555;52.678;4.900;2022-12-29T04:29:03;10.48;;;2.38;;
74196;SDS011;62555;52.678;4.900;2022-12-29T04:31:29;8.63;;;2.33;;
74196;SDS011;62555;52.678;4.900;2022-12-29T04:33:54;10.65;;;3.30;;
74196;SDS011;62555;52.678;4.900;2022-12-29T04:36:22;10.60;;;2.80;;
74196;SDS011;62555;52.678;4.900;2022-12-29T04:38:47;11.25;;;2.85;;
74196;SDS011;62555;52.678;4.900;2022-12-29T04:41:12;6.97;;;2.15;;
74196;SDS011;62555;52.678;4.900;2022-12-29T04:43:38;11.15;;;2.58;;
74196;SDS011;62555;52.678;4.900;2022-12-29T04:46:03;12.18;;;2.78;;
74196;SDS011;62555;52.678;4.900;2022-12-29T04:48:28;10.40;;;2.55;;
74196;SDS011;62555;52.678;4.900;2022-12-29T04:50:54;13.40;;;2.50;;
74196;SDS011;62555;52.678;4.900;2022-12-29T04:53:19;10.35;;;2.83;;
74196;SDS011;62555;52.678;4.900;2022-12-29T04:55:47;11.88;;;3.10;;
74196;SDS011;62555;52.678;4.900;2022-12-29T04:58:14;11.45;;;2.75;;
74196;SDS011;62555;52.678;4.900;2022-12-29T05:00:39;9.77;;;2.63;;
74196;SDS011;62555;52.678;4.900;2022-12-29T05:03:04;11.50;;;2.45;;
74196;SDS011;62555;52.678;4.900;2022-12-29T05:05:29;11.07;;;3.25;;
74196;SDS011;62555;52.678;4.900;2022-12-29T05:07:55;12.05;;;3.35;;
74196;SDS011;62555;52.678;4.900;2022-12-29T05:10:20;10.18;;;3.03;;
74196;SDS011;62555;52.678;4.900;2022-12-29T05:12:46;12.43;;;3.25;;
74196;SDS011;62555;52.678;4.900;2022-12-29T05:15:11;10.82;;;2.58;;
74196;SDS011;62555;52.678;4.900;2022-12-29T05:17:36;9.20;;;2.58;;
74196;SDS011;62555;52.678;4.900;2022-12-29T05:20:02;10.18;;;2.47;;
74196;SDS011;62555;52.678;4.900;2022-12-29T05:22:29;12.20;;;3.00;;
74196;SDS011;62555;52.678;4.900;2022-12-29T05:24:54;7.80;;;2.85;;
74196;SDS011;62555;52.678;4.900;2022-12-29T05:27:19;9.98;;;3.63;;
74196;SDS011;62555;52.678;4.900;2022-12-29T05:29:45;12.38;;;2.47;;
74196;SDS011;62555;52.678;4.900;2022-12-29T05:32:10;9.38;;;3.03;;
74196;SDS011;62555;52.678;4.900;2022-12-29T05:34:35;14.40;;;3.50;;
74196;SDS011;62555;52.678;4.900;2022-12-29T05:37:01;9.50;;;2.33;;
74196;SDS011;62555;52.678;4.900;2022-12-29T05:39:27;9.68;;;2.53;;
74196;SDS011;62555;52.678;4.900;2022-12-29T05:41:52;11.05;;;2.97;;
74196;SDS011;62555;52.678;4.900;2022-12-29T05:44:18;13.30;;;3.28;;
74196;SDS011;62555;52.678;4.900;2022-12-29T05:46:43;9.15;;;3.80;;
74196;SDS011;62555;52.678;4.900;2022-12-29T05:49:08;14.95;;;3.72;;
74196;SDS011;62555;52.678;4.900;2022-12-29T05:51:34;9.30;;;2.97;;
74196;SDS011;62555;52.678;4.900;2022-12-29T06:09:38;13.23;;;5.70;;
74196;SDS011;62555;52.678;4.900;2022-12-29T06:12:03;15.85;;;5.10;;
74196;SDS011;62555;52.678;4.900;2022-12-29T06:14:29;14.88;;;5.40;;
74196;SDS011;62555;52.678;4.900;2022-12-29T06:16:54;17.77;;;5.35;;
74196;SDS011;62555;52.678;4.900;2022-12-29T06:19:19;12.23;;;4.82;;
74196;SDS011;62555;52.678;4.900;2022-12-29T06:21:45;16.08;;;4.97;;
74196;SDS011;62555;52.678;4.900;2022-12-29T06:24:10;12.30;;;4.85;;
74196;SDS011;62555;52.678;4.900;2022-12-29T06:26:36;12.27;;;4.72;;
74196;SDS011;62555;52.678;4.900;2022-12-29T06:29:01;13.23;;;5.35;;
74196;SDS011;62555;52.678;4.900;2022-12-29T06:31:27;19.13;;;6.75;;
74196;SDS011;62555;52.678;4.900;2022-12-29T06:33:53;16.58;;;5.80;;
74196;SDS011;62555;52.678;4.900;2022-12-29T06:36:18;16.35;;;5.28;;
74196;SDS011;62555;52.678;4.900;2022-12-29T06:38:44;12.43;;;5.50;;
74196;SDS011;62555;52.678;4.900;2022-12-29T06:41:09;8.73;;;5.03;;
74196;SDS011;62555;52.678;4.900;2022-12-29T06:43:34;11.88;;;5.57;;
74196;SDS011;62555;52.678;4.900;2022-12-29T06:46:03;13.63;;;5.30;;
74196;SDS011;62555;52.678;4.900;2022-12-29T06:48:29;13.95;;;4.38;;
74196;SDS011;62555;52.678;4.900;2022-12-29T06:50:54;12.73;;;4.60;;
74196;SDS011;62555;52.678;4.900;2022-12-29T06:53:19;16.60;;;5.43;;
74196;SDS011;62555;52.678;4.900;2022-12-29T06:55:45;14.25;;;4.80;;
74196;SDS011;62555;52.678;4.900;2022-12-29T06:58:10;12.60;;;4.93;;
74196;SDS011;62555;52.678;4.900;2022-12-29T07:00:35;13.02;;;4.63;;
74196;SDS011;62555;52.678;4.900;2022-12-29T07:03:01;15.02;;;4.70;;
74196;SDS011;62555;52.678;4.900;2022-12-29T07:05:26;13.98;;;4.88;;
74196;SDS011;62555;52.678;4.900;2022-12-29T07:07:52;10.35;;;4.68;;
74196;SDS011;62555;52.678;4.900;2022-12-29T07:10:18;11.65;;;4.95;;
74196;SDS011;62555;52.678;4.900;2022-12-29T07:12:44;14.23;;;6.13;;
74196;SDS011;62555;52.678;4.900;2022-12-29T07:15:09;13.27;;;5.32;;
74196;SDS011;62555;52.678;4.900;2022-12-29T07:17:35;13.60;;;5.22;;
74196;SDS011;62555;52.678;4.900;2022-12-29T07:20:00;10.32;;;4.88;;
74196;SDS011;62555;52.678;4.900;2022-12-29T07:22:25;11.82;;;5.05;;
74196;SDS011;62555;52.678;4.900;2022-12-29T07:24:51;12.77;;;5.10;;
74196;SDS011;62555;52.678;4.900;2022-12-29T07:27:16;13.45;;;5.57;;
74196;SDS011;62555;52.678;4.900;2022-12-29T07:29:41;10.45;;;5.13;;
74196;SDS011;62555;52.678;4.900;2022-12-29T07:32:07;16.13;;;6.10;;
74196;SDS011;62555;52.678;4.900;2022-12-29T07:34:32;14.80;;;4.13;;
74196;SDS011;62555;52.678;4.900;2022-12-29T07:36:57;12.82;;;4.78;;
74196;SDS011;62555;52.678;4.900;2022-12-29T07:39:23;12.15;;;5.18;;
74196;SDS011;62555;52.678;4.900;2022-12-29T07:41:48;14.65;;;5.20;;
74196;SDS011;62555;52.678;4.900;2022-12-29T07:44:13;13.70;;;6.65;;
74196;SDS011;62555;52.678;4.900;2022-12-29T07:46:38;12.15;;;5.47;;
74196;SDS011;62555;52.678;4.900;2022-12-29T07:49:04;16.58;;;5.95;;
74196;SDS011;62555;52.678;4.900;2022-12-29T07:51:29;13.55;;;5.53;;
74196;SDS011;62555;52.678;4.900;2022-12-29T07:53:54;17.65;;;6.03;;
74196;SDS011;62555;52.678;4.900;2022-12-29T07:56:20;12.13;;;5.93;;
74196;SDS011;62555;52.678;4.900;2022-12-29T07:58:45;13.95;;;5.35;;
74196;SDS011;62555;52.678;4.900;2022-12-29T08:01:10;14.40;;;4.78;;
74196;SDS011;62555;52.678;4.900;2022-12-29T08:03:36;16.95;;;5.68;;
74196;SDS011;62555;52.678;4.900;2022-12-29T08:06:01;15.15;;;6.22;;
74196;SDS011;62555;52.678;4.900;2022-12-29T08:08:27;16.10;;;5.50;;
74196;SDS011;62555;52.678;4.900;2022-12-29T08:10:52;14.82;;;5.07;;
74196;SDS011;62555;52.678;4.900;2022-12-29T08:13:18;15.48;;;5.45;;
74196;SDS011;62555;52.678;4.900;2022-12-29T08:15:43;14.80;;;5.80;;
74196;SDS011;62555;52.678;4.900;2022-12-29T08:18:08;16.48;;;5.68;;
74196;SDS011;62555;52.678;4.900;2022-12-29T08:20:34;12.82;;;5.60;;
74196;SDS011;62555;52.678;4.900;2022-12-29T08:22:59;14.50;;;5.95;;
74196;SDS011;62555;52.678;4.900;2022-12-29T08:25:24;16.52;;;6.05;;
74196;SDS011;62555;52.678;4.900;2022-12-29T08:27:50;14.00;;;5.70;;
74196;SDS011;62555;52.678;4.900;2022-12-29T08:30:15;16.30;;;5.93;;
74196;SDS011;62555;52.678;4.900;2022-12-29T08:32:41;15.52;;;6.47;;
74196;SDS011;62555;52.678;4.900;2022-12-29T08:35:06;14.75;;;5.82;;
74196;SDS011;62555;52.678;4.900;2022-12-29T08:37:32;16.75;;;5.90;;
74196;SDS011;62555;52.678;4.900;2022-12-29T08:39:58;18.05;;;5.47;;
74196;SDS011;62555;52.678;4.900;2022-12-29T08:42:25;11.30;;;4.88;;
74196;SDS011;62555;52.678;4.900;2022-12-29T08:44:55;11.38;;;5.20;;
74196;SDS011;62555;52.678;4.900;2022-12-29T08:47:21;11.77;;;5.40;;
74196;SDS011;62555;52.678;4.900;2022-12-29T08:49:46;12.25;;;5.30;;
74196;SDS011;62555;52.678;4.900;2022-12-29T08:52:11;14.13;;;5.78;;
74196;SDS011;62555;52.678;4.900;2022-12-29T08:54:37;13.75;;;4.57;;
74196;SDS011;62555;52.678;4.900;2022-12-29T08:57:02;12.55;;;6.15;;
74196;SDS011;62555;52.678;4.900;2022-12-29T08:59:27;13.68;;;5.82;;
74196;SDS011;62555;52.678;4.900;2022-12-29T09:01:52;10.68;;;4.57;;
74196;SDS011;62555;52.678;4.900;2022-12-29T09:04:18;16.73;;;6.05;;
74196;SDS011;62555;52.678;4.900;2022-12-29T09:06:44;11.15;;;5.28;;
74196;SDS011;62555;52.678;4.900;2022-12-29T09:09:10;16.75;;;6.80;;
74196;SDS011;62555;52.678;4.900;2022-12-29T09:11:36;10.75;;;6.22;;
74196;SDS011;62555;52.678;4.900;2022-12-29T09:14:01;16.98;;;5.55;;
74196;SDS011;62555;52.678;4.900;2022-12-29T09:16:26;12.52;;;5.20;;
74196;SDS011;62555;52.678;4.900;2022-12-29T09:18:52;9.95;;;4.95;;
74196;SDS011;62555;52.678;4.900;2022-12-29T09:21:17;13.43;;;5.40;;
74196;SDS011;62555;52.678;4.900;2022-12-29T09:23:43;13.43;;;5.60;;
74196;SDS011;62555;52.678;4.900;2022-12-29T09:26:08;15.68;;;5.63;;
74196;SDS011;62555;52.678;4.900;2022-12-29T09:28:34;10.77;;;4.95;;
74196;SDS011;62555;52.678;4.900;2022-12-29T09:30:59;10.57;;;4.97;;
74196;SDS011;62555;52.678;4.900;2022-12-29T09:33:25;8.45;;;5.10;;
74196;SDS011;62555;52.678;4.900;2022-12-29T09:35:52;16.63;;;6.53;;
74196;SDS011;62555;52.678;4.900;2022-12-29T09:38:19;11.90;;;4.68;;
74196;SDS011;62555;52.678;4.900;2022-12-29T09:40:45;11.88;;;6.25;;
74196;SDS011;62555;52.678;4.900;2022-12-29T09:46:21;12.70;;;5.45;;
74196;SDS011;62555;52.678;4.900;2022-12-29T09:48:52;12.77;;;5.63;;
74196;SDS011;62555;52.678;4.900;2022-12-29T09:51:23;12.27;;;7.00;;
74196;SDS011;62555;52.678;4.900;2022-12-29T09:53:51;13.38;;;5.35;;
74196;SDS011;62555;52.678;4.900;2022-12-29T09:56:21;14.75;;;5.82;;
74196;SDS011;62555;52.678;4.900;2022-12-29T09:58:51;14.32;;;6.22;;
74196;SDS011;62555;52.678;4.900;2022-12-29T10:01:26;14.35;;;6.65;;
74196;SDS011;62555;52.678;4.900;2022-12-29T10:03:57;19.27;;;6.65;;
74196;SDS011;62555;52.678;4.900;2022-12-29T10:06:28;16.27;;;6.80;;
74196;SDS011;62555;52.678;4.900;2022-12-29T10:11:39;14.13;;;5.78;;
74196;SDS011;62555;52.678;4.900;2022-12-29T10:14:11;16.58;;;6.43;;
74196;SDS011;62555;52.678;4.900;2022-12-29T10:19:53;16.67;;;5.88;;
74196;SDS011;62555;52.678;4.900;2022-12-29T10:25:15;16.38;;;6.18;;
74196;SDS011;62555;52.678;4.900;2022-12-29T10:27:42;13.48;;;6.55;;
74196;SDS011;62555;52.678;4.900;2022-12-29T10:30:11;12.13;;;6.88;;
74196;SDS011;62555;52.678;4.900;2022-12-29T10:40:39;19.20;;;6.40;;
74196;SDS011;62555;52.678;4.900;2022-12-29T10:43:33;18.42;;;6.80;;
74196;SDS011;62555;52.678;4.900;2022-12-29T10:46:04;13.95;;;5.65;;
74196;SDS011;62555;52.678;4.900;2022-12-29T10:48:33;12.32;;;5.45;;
74196;SDS011;62555;52.678;4.900;2022-12-29T10:50:59;18.08;;;6.88;;
74196;SDS011;62555;52.678;4.900;2022-12-29T10:56:27;12.20;;;5.65;;
74196;SDS011;62555;52.678;4.900;2022-12-29T10:59:00;16.05;;;5.32;;
74196;SDS011;62555;52.678;4.900;2022-12-29T11:01:31;17.92;;;6.93;;
74196;SDS011;62555;52.678;4.900;2022-12-29T11:04:03;12.85;;;4.80;;
74196;SDS011;62555;52.678;4.900;2022-12-29T11:06:32;13.70;;;5.57;;
74196;SDS011;62555;52.678;4.900;2022-12-29T11:09:01;28.58;;;10.73;;
74196;SDS011;62555;52.678;4.900;2022-12-29T11:11:33;143.75;;;103.75;;
74196;SDS011;62555;52.678;4.900;2022-12-29T11:14:19;562.05;;;475.85;;
74196;SDS011;62555;52.678;4.900;2022-12-29T11:16:56;1220.90;;;813.70;;
74196;SDS011;62555;52.678;4.900;2022-12-29T11:19:24;1410.20;;;857.08;;
74196;SDS011;62555;52.678;4.900;2022-12-29T11:21:51;1522.30;;;882.45;;
74196;SDS011;62555;52.678;4.900;2022-12-29T11:24:26;1572.82;;;890.55;;
74196;SDS011;62555;52.678;4.900;2022-12-29T11:26:54;1585.75;;;876.15;;
74196;SDS011;62555;52.678;4.900;2022-12-29T11:29:44;1579.13;;;867.95;;
74196;SDS011;62555;52.678;4.900;2022-12-29T11:34:47;1419.47;;;810.05;;
74196;SDS011;62555;52.678;4.900;2022-12-29T11:37:13;1397.10;;;812.78;;
74196;SDS011;62555;52.678;4.900;2022-12-29T11:45:13;1362.22;;;798.28;;
74196;SDS011;62555;52.678;4.900;2022-12-29T11:47:41;1249.97;;;749.83;;
74196;SDS011;62555;52.678;4.900;2022-12-29T11:50:07;1341.80;;;777.97;;
74196;SDS011;62555;52.678;4.900;2022-12-29T11:52:40;1596.47;;;917.17;;
74196;SDS011;62555;52.678;4.900;2022-12-29T11:55:13;1589.68;;;856.67;;
74196;SDS011;62555;52.678;4.900;2022-12-29T11:57:45;1488.97;;;805.80;;
74196;SDS011;62555;52.678;4.900;2022-12-29T12:00:30;1329.35;;;751.67;;
74196;SDS011;62555;52.678;4.900;2022-12-29T12:03:04;1505.07;;;837.55;;
74196;SDS011;62555;52.678;4.900;2022-12-29T12:05:46;1588.32;;;881.53;;
74196;SDS011;62555;52.678;4.900;2022-12-29T12:08:18;1590.53;;;868.67;;
74196;SDS011;62555;52.678;4.900;2022-12-29T12:15:43;1528.07;;;830.63;;
74196;SDS011;62555;52.678;4.900;2022-12-29T12:18:12;1573.90;;;845.72;;
74196;SDS011;62555;52.678;4.900;2022-12-29T12:20:45;1571.35;;;842.88;;
74196;SDS011;62555;52.678;4.900;2022-12-29T12:23:32;1443.90;;;794.78;;
74196;SDS011;62555;52.678;4.900;2022-12-29T12:26:08;1171.38;;;688.60;;
74196;SDS011;62555;52.678;4.900;2022-12-29T12:28:44;1016.53;;;615.58;;
74196;SDS011;62555;52.678;4.900;2022-12-29T12:31:35;847.58;;;521.20;;
74196;SDS011;62555;52.678;4.900;2022-12-29T12:34:41;880.70;;;588.97;;
74196;SDS011;62555;52.678;4.900;2022-12-29T12:49:08;686.38;;;469.85;;
74196;SDS011;62555;52.678;4.900;2022-12-29T12:57:46;1243.40;;;789.95;;
74196;SDS011;62555;52.678;4.900;2022-12-29T13:00:19;1162.05;;;748.03;;
74196;SDS011;62555;52.678;4.900;2022-12-29T13:09:03;657.47;;;407.33;;
74196;SDS011;62555;52.678;4.900;2022-12-29T13:14:41;428.83;;;232.98;;
74196;SDS011;62555;52.678;4.900;2022-12-29T13:17:30;249.63;;;118.65;;
74196;SDS011;62555;52.678;4.900;2022-12-29T13:31:27;18.00;;;7.57;;
74196;SDS011;62555;52.678;4.900;2022-12-29T13:36:54;11.52;;;5.20;;
74196;SDS011;62555;52.678;4.900;2022-12-29T13:42:03;8.52;;;4.18;;
74196;SDS011;62555;52.678;4.900;2022-12-29T13:44:31;9.52;;;4.38;;
74196;SDS011;62555;52.678;4.900;2022-12-29T13:47:00;10.10;;;4.40;;
74196;SDS011;62555;52.678;4.900;2022-12-29T13:49:31;8.20;;;4.22;;
74196;SDS011;62555;52.678;4.900;2022-12-29T13:51:59;11.60;;;4.55;;
74196;SDS011;62555;52.678;4.900;2022-12-29T13:57:40;7.43;;;3.97;;
74196;SDS011;62555;52.678;4.900;2022-12-29T14:00:21;7.53;;;4.20;;
74196;SDS011;62555;52.678;4.900;2022-12-29T14:05:33;5.77;;;3.87;;
74196;SDS011;62555;52.678;4.900;2022-12-29T14:07:59;9.05;;;4.68;;
74196;SDS011;62555;52.678;4.900;2022-12-29T14:13:14;10.85;;;4.22;;
74196;SDS011;62555;52.678;4.900;2022-12-29T14:15:42;5.63;;;3.05;;
74196;SDS011;62555;52.678;4.900;2022-12-29T14:18:18;10.23;;;4.63;;
74196;SDS011;62555;52.678;4.900;2022-12-29T14:20:50;7.78;;;3.88;;
74196;SDS011;62555;52.678;4.900;2022-12-29T14:23:29;9.75;;;3.90;;
74196;SDS011;62555;52.678;4.900;2022-12-29T14:28:35;9.27;;;4.15;;
74196;SDS011;62555;52.678;4.900;2022-12-29T14:31:03;8.23;;;4.30;;
74196;SDS011;62555;52.678;4.900;2022-12-29T14:35:56;8.25;;;2.97;;
74196;SDS011;62555;52.678;4.900;2022-12-29T14:38:23;8.85;;;3.60;;
74196;SDS011;62555;52.678;4.900;2022-12-29T14:40:53;9.63;;;3.70;;
74196;SDS011;62555;52.678;4.900;2022-12-29T14:43:47;6.97;;;3.67;;
74196;SDS011;62555;52.678;4.900;2022-12-29T14:46:17;12.45;;;4.05;;
74196;SDS011;62555;52.678;4.900;2022-12-29T14:48:42;9.13;;;4.03;;
74196;SDS011;62555;52.678;4.900;2022-12-29T14:53:56;7.85;;;3.03;;
74196;SDS011;62555;52.678;4.900;2022-12-29T14:56:27;7.85;;;3.38;;
74196;SDS011;62555;52.678;4.900;2022-12-29T14:58:54;9.63;;;3.95;;
74196;SDS011;62555;52.678;4.900;2022-12-29T15:04:06;8.35;;;4.32;;
74196;SDS011;62555;52.678;4.900;2022-12-29T15:06:39;9.35;;;3.97;;
74196;SDS011;62555;52.678;4.900;2022-12-29T15:09:19;11.02;;;3.88;;
74196;SDS011;62555;52.678;4.900;2022-12-29T15:11:48;8.75;;;3.63;;
74196;SDS011;62555;52.678;4.900;2022-12-29T15:14:32;8.63;;;3.83;;
74196;SDS011;62555;52.678;4.900;2022-12-29T15:17:22;9.63;;;3.75;;
74196;SDS011;62555;52.678;4.900;2022-12-29T15:19:50;7.80;;;3.22;;
74196;SDS011;62555;52.678;4.900;2022-12-29T15:22:15;149.05;;;107.88;;
74196;SDS011;62555;52.678;4.900;2022-12-29T15:24:41;117.65;;;80.45;;
74196;SDS011;62555;52.678;4.900;2022-12-29T15:27:10;82.95;;;50.22;;
74196;SDS011;62555;52.678;4.900;2022-12-29T15:29:42;53.70;;;27.60;;
74196;SDS011;62555;52.678;4.900;2022-12-29T15:34:40;136.25;;;76.30;;
74196;SDS011;62555;52.678;4.900;2022-12-29T15:37:07;299.35;;;213.75;;
74196;SDS011;62555;52.678;4.900;2022-12-29T15:39:33;514.95;;;414.58;;
74196;SDS011;62555;52.678;4.900;2022-12-29T15:42:23;656.35;;;532.72;;
74196;SDS011;62555;52.678;4.900;2022-12-29T15:44:59;638.95;;;482.08;;
74196;SDS011;62555;52.678;4.900;2022-12-29T15:47:29;677.28;;;515.17;;
74196;SDS011;62555;52.678;4.900;2022-12-29T15:50:55;731.13;;;544.63;;
74196;SDS011;62555;52.678;4.900;2022-12-29T15:52:53;825.03;;;609.22;;
74196;SDS011;62555;52.678;4.900;2022-12-29T15:55:41;766.58;;;554.03;;
74196;SDS011;62555;52.678;4.900;2022-12-29T15:58:15;660.72;;;445.80;;
74196;SDS011;62555;52.678;4.900;2022-12-29T16:00:46;559.10;;;387.65;;
74196;SDS011;62555;52.678;4.900;2022-12-29T16:03:17;741.83;;;559.00;;
74196;SDS011;62555;52.678;4.900;2022-12-29T16:05:49;853.10;;;625.13;;
74196;SDS011;62555;52.678;4.900;2022-12-29T16:08:33;863.35;;;626.88;;
74196;SDS011;62555;52.678;4.900;2022-12-29T16:11:02;760.42;;;543.58;;
74196;SDS011;62555;52.678;4.900;2022-12-29T16:16:12;785.33;;;553.87;;
74196;SDS011;62555;52.678;4.900;2022-12-29T16:18:40;758.65;;;529.10;;
74196;SDS011;62555;52.678;4.900;2022-12-29T16:21:12;754.05;;;522.22;;
74196;SDS011;62555;52.678;4.900;2022-12-29T16:23:41;906.50;;;620.45;;
74196;SDS011;62555;52.678;4.900;2022-12-29T16:26:19;969.47;;;639.42;;
74196;SDS011;62555;52.678;4.900;2022-12-29T16:28:50;935.22;;;628.25;;
74196;SDS011;62555;52.678;4.900;2022-12-29T16:31:22;849.92;;;598.47;;
74196;SDS011;62555;52.678;4.900;2022-12-29T16:33:52;919.90;;;634.95;;
74196;SDS011;62555;52.678;4.900;2022-12-29T16:36:30;905.83;;;618.15;;
74196;SDS011;62555;52.678;4.900;2022-12-29T16:42:01;807.63;;;556.95;;
74196;SDS011;62555;52.678;4.900;2022-12-29T16:44:46;825.03;;;557.30;;
74196;SDS011;62555;52.678;4.900;2022-12-29T16:49:38;764.53;;;513.33;;
74196;SDS011;62555;52.678;4.900;2022-12-29T16:52:17;855.55;;;581.40;;
74196;SDS011;62555;52.678;4.900;2022-12-29T16:54:52;857.28;;;595.65;;
74196;SDS011;62555;52.678;4.900;2022-12-29T16:57:21;913.42;;;618.33;;
74196;SDS011;62555;52.678;4.900;2022-12-29T16:59:47;782.25;;;531.78;;
74196;SDS011;62555;52.678;4.900;2022-12-29T17:02:18;675.60;;;438.45;;
74196;SDS011;62555;52.678;4.900;2022-12-29T17:04:45;561.15;;;349.45;;
74196;SDS011;62555;52.678;4.900;2022-12-29T17:07:20;419.88;;;228.20;;
74196;SDS011;62555;52.678;4.900;2022-12-29T17:09:47;310.70;;;160.07;;
74196;SDS011;62555;52.678;4.900;2022-12-29T17:12:17;220.40;;;101.32;;
74196;SDS011;62555;52.678;4.900;2022-12-29T17:15:05;113.03;;;48.72;;
74196;SDS011;62555;52.678;4.900;2022-12-29T17:17:41;62.78;;;24.80;;
74196;SDS011;62555;52.678;4.900;2022-12-29T17:20:18;32.40;;;11.88;;
74196;SDS011;62555;52.678;4.900;2022-12-29T17:22:54;16.52;;;5.85;;
74196;SDS011;62555;52.678;4.900;2022-12-29T17:25:21;15.38;;;6.80;;